sensor_id;sensor_type;location;lat;lon;timestamp;P1;durP1;ratioP1;P2;durP2;ratioP2
66702;SDS011;60933;46.398;-63.798;2023-09-30T00:00:53;8.45;;;4.50;;
66702;SDS011;60933;46.398;-63.798;2023-09-30T00:03:19;8.15;;;5.10;;
66702;SDS011;60933;46.398;-63.798;2023-09-30T00:05:45;10.48;;;5.20;;
66702;SDS011;60933;46.398;-63.798;2023-09-30T00:08:11;8.55;;;5.13;;
66702;SDS011;60933;46.398;-63.798;2023-09-30T00:10:37;7.97;;;4.50;;
66702;SDS011;60933;46.398;-63.798;2023-09-30T00:13:03;6.95;;;4.65;;
66702;SDS011;60933;46.398;-63.798;2023-09-30T00:15:32;8.60;;;4.88;;
66702;SDS011;60933;46.398;-63.798;2023-09-30T00:17:58;8.32;;;5.07;;
66702;SDS011;60933;46.398;-63.798;2023-09-30T00:20:26;9.25;;;4.72;;
66702;SDS011;60933;46.398;-63.798;2023-09-30T00:22:53;9.32;;;5.25;;
66702;SDS011;60933;46.398;-63.798;2023-09-30T00:25:19;9.10;;;4.78;;
66702;SDS011;60933;46.398;-63.798;2023-09-30T00:27:46;9.73;;;4.53;;
66702;SDS011;60933;46.398;-63.798;2023-09-30T00:30:13;7.93;;;4.22;;
66702;SDS011;60933;46.398;-63.798;2023-09-30T00:32:39;8.48;;;4.80;;
66702;SDS011;60933;46.398;-63.798;2023-09-30T00:35:05;9.10;;;5.10;;
66702;SDS011;60933;46.398;-63.798;2023-09-30T00:37:37;7.65;;;4.10;;
66702;SDS011;60933;46.398;-63.798;2023-09-30T00:40:04;7.60;;;4.05;;
66702;SDS011;60933;46.398;-63.798;2023-09-30T00:42:31;8.07;;;4.50;;
66702;SDS011;60933;46.398;-63.798;2023-09-30T00:44:57;7.63;;;4.15;;
66702;SDS011;60933;46.398;-63.798;2023-09-30T00:47:23;9.02;;;4.43;;
66702;SDS011;60933;46.398;-63.798;2023-09-30T00:49:51;8.25;;;4.45;;
66702;SDS011;60933;46.398;-63.798;2023-09-30T00:52:19;7.13;;;4.38;;
66702;SDS011;60933;46.398;-63.798;2023-09-30T00:54:45;6.72;;;3.72;;
66702;SDS011;60933;46.398;-63.798;2023-09-30T00:57:13;6.55;;;3.80;;
66702;SDS011;60933;46.398;-63.798;2023-09-30T00:59:39;7.57;;;4.40;;
66702;SDS011;60933;46.398;-63.798;2023-09-30T01:02:07;6.60;;;3.45;;
66702;SDS011;60933;46.398;-63.798;2023-09-30T01:04:33;5.97;;;3.30;;
66702;SDS011;60933;46.398;-63.798;2023-09-30T01:06:59;6.40;;;3.05;;
66702;SDS011;60933;46.398;-63.798;2023-09-30T01:09:25;6.38;;;3.60;;
66702;SDS011;60933;46.398;-63.798;2023-09-30T01:11:51;6.22;;;3.40;;
66702;SDS011;60933;46.398;-63.798;2023-09-30T01:14:24;6.00;;;3.17;;
66702;SDS011;60933;46.398;-63.798;2023-09-30T01:16:51;5.38;;;3.28;;
66702;SDS011;60933;46.398;-63.798;2023-09-30T01:19:18;6.40;;;3.53;;
66702;SDS011;60933;46.398;-63.798;2023-09-30T01:21:44;6.38;;;3.83;;
66702;SDS011;60933;46.398;-63.798;2023-09-30T01:24:16;5.40;;;3.53;;
66702;SDS011;60933;46.398;-63.798;2023-09-30T01:26:42;7.40;;;4.13;;
66702;SDS011;60933;46.398;-63.798;2023-09-30T01:29:09;6.40;;;3.33;;
66702;SDS011;60933;46.398;-63.798;2023-09-30T01:31:37;7.18;;;3.83;;
66702;SDS011;60933;46.398;-63.798;2023-09-30T01:34:04;8.18;;;4.20;;
66702;SDS011;60933;46.398;-63.798;2023-09-30T01:36:31;7.28;;;4.15;;
66702;SDS011;60933;46.398;-63.798;2023-09-30T01:38:58;8.80;;;4.30;;
66702;SDS011;60933;46.398;-63.798;2023-09-30T01:41:24;8.93;;;4.70;;
66702;SDS011;60933;46.398;-63.798;2023-09-30T01:43:50;9.27;;;4.53;;
66702;SDS011;60933;46.398;-63.798;2023-09-30T01:46:16;7.55;;;4.32;;
66702;SDS011;60933;46.398;-63.798;2023-09-30T01:48:42;7.97;;;4.57;;
66702;SDS011;60933;46.398;-63.798;2023-09-30T01:51:08;9.18;;;4.45;;
66702;SDS011;60933;46.398;-63.798;2023-09-30T01:53:34;8.32;;;4.22;;
66702;SDS011;60933;46.398;-63.798;2023-09-30T01:56:00;6.95;;;4.10;;
66702;SDS011;60933;46.398;-63.798;2023-09-30T01:58:27;6.85;;;4.18;;
66702;SDS011;60933;46.398;-63.798;2023-09-30T02:00:53;8.70;;;4.15;;
66702;SDS011;60933;46.398;-63.798;2023-09-30T02:03:27;7.80;;;4.20;;
66702;SDS011;60933;46.398;-63.798;2023-09-30T02:05:54;8.27;;;4.32;;
66702;SDS011;60933;46.398;-63.798;2023-09-30T02:08:21;7.10;;;3.60;;
66702;SDS011;60933;46.398;-63.798;2023-09-30T02:10:47;9.57;;;4.93;;
66702;SDS011;60933;46.398;-63.798;2023-09-30T02:13:13;9.40;;;5.07;;
66702;SDS011;60933;46.398;-63.798;2023-09-30T02:15:40;8.68;;;4.65;;
66702;SDS011;60933;46.398;-63.798;2023-09-30T02:18:06;9.55;;;4.70;;
66702;SDS011;60933;46.398;-63.798;2023-09-30T02:20:33;8.07;;;4.45;;
66702;SDS011;60933;46.398;-63.798;2023-09-30T02:22:59;8.57;;;4.97;;
66702;SDS011;60933;46.398;-63.798;2023-09-30T02:25:27;7.68;;;4.53;;
66702;SDS011;60933;46.398;-63.798;2023-09-30T02:27:53;6.28;;;4.03;;
66702;SDS011;60933;46.398;-63.798;2023-09-30T02:30:19;7.90;;;4.85;;
66702;SDS011;60933;46.398;-63.798;2023-09-30T02:32:46;7.45;;;3.90;;
66702;SDS011;60933;46.398;-63.798;2023-09-30T02:35:12;8.15;;;4.25;;
66702;SDS011;60933;46.398;-63.798;2023-09-30T02:37:40;7.35;;;4.30;;
66702;SDS011;60933;46.398;-63.798;2023-09-30T02:40:07;8.35;;;4.35;;
66702;SDS011;60933;46.398;-63.798;2023-09-30T02:42:37;8.40;;;4.03;;
66702;SDS011;60933;46.398;-63.798;2023-09-30T02:45:04;7.88;;;4.22;;
66702;SDS011;60933;46.398;-63.798;2023-09-30T02:47:31;6.95;;;3.58;;
66702;SDS011;60933;46.398;-63.798;2023-09-30T02:49:58;5.85;;;2.95;;
66702;SDS011;60933;46.398;-63.798;2023-09-30T02:52:24;5.47;;;2.97;;
66702;SDS011;60933;46.398;-63.798;2023-09-30T02:54:50;7.07;;;3.03;;
66702;SDS011;60933;46.398;-63.798;2023-09-30T02:57:17;5.53;;;2.78;;
66702;SDS011;60933;46.398;-63.798;2023-09-30T02:59:47;5.35;;;2.88;;
66702;SDS011;60933;46.398;-63.798;2023-09-30T03:02:13;5.70;;;3.03;;
66702;SDS011;60933;46.398;-63.798;2023-09-30T03:04:40;6.35;;;3.42;;
66702;SDS011;60933;46.398;-63.798;2023-09-30T03:07:07;6.40;;;3.22;;
66702;SDS011;60933;46.398;-63.798;2023-09-30T03:09:34;6.07;;;3.33;;
66702;SDS011;60933;46.398;-63.798;2023-09-30T03:12:02;8.02;;;4.05;;
66702;SDS011;60933;46.398;-63.798;2023-09-30T03:14:30;7.82;;;3.90;;
66702;SDS011;60933;46.398;-63.798;2023-09-30T03:16:59;7.97;;;3.90;;
66702;SDS011;60933;46.398;-63.798;2023-09-30T03:19:26;6.80;;;3.63;;
66702;SDS011;60933;46.398;-63.798;2023-09-30T03:21:52;6.38;;;3.38;;
66702;SDS011;60933;46.398;-63.798;2023-09-30T03:24:18;5.82;;;3.42;;
66702;SDS011;60933;46.398;-63.798;2023-09-30T03:26:44;6.55;;;3.53;;
66702;SDS011;60933;46.398;-63.798;2023-09-30T03:29:10;8.50;;;3.97;;
66702;SDS011;60933;46.398;-63.798;2023-09-30T03:31:37;7.38;;;3.60;;
66702;SDS011;60933;46.398;-63.798;2023-09-30T03:34:03;8.93;;;4.70;;
66702;SDS011;60933;46.398;-63.798;2023-09-30T03:36:30;9.10;;;4.15;;
66702;SDS011;60933;46.398;-63.798;2023-09-30T03:38:56;8.48;;;4.10;;
66702;SDS011;60933;46.398;-63.798;2023-09-30T03:41:32;7.78;;;4.20;;
66702;SDS011;60933;46.398;-63.798;2023-09-30T03:44:00;8.18;;;4.53;;
66702;SDS011;60933;46.398;-63.798;2023-09-30T03:46:27;8.75;;;4.15;;
66702;SDS011;60933;46.398;-63.798;2023-09-30T03:48:53;10.57;;;5.18;;
66702;SDS011;60933;46.398;-63.798;2023-09-30T03:51:20;9.63;;;4.70;;
66702;SDS011;60933;46.398;-63.798;2023-09-30T03:53:50;10.25;;;4.50;;
66702;SDS011;60933;46.398;-63.798;2023-09-30T03:56:17;9.57;;;4.70;;
66702;SDS011;60933;46.398;-63.798;2023-09-30T03:58:43;9.82;;;5.03;;
66702;SDS011;60933;46.398;-63.798;2023-09-30T04:01:13;11.45;;;5.05;;
66702;SDS011;60933;46.398;-63.798;2023-09-30T04:03:40;9.52;;;4.85;;
66702;SDS011;60933;46.398;-63.798;2023-09-30T04:06:08;10.57;;;5.38;;
66702;SDS011;60933;46.398;-63.798;2023-09-30T04:08:34;10.02;;;4.80;;
66702;SDS011;60933;46.398;-63.798;2023-09-30T04:11:02;11.02;;;5.25;;
66702;SDS011;60933;46.398;-63.798;2023-09-30T04:13:28;10.70;;;5.07;;
66702;SDS011;60933;46.398;-63.798;2023-09-30T04:15:58;12.55;;;5.57;;
66702;SDS011;60933;46.398;-63.798;2023-09-30T04:18:24;11.13;;;5.07;;
66702;SDS011;60933;46.398;-63.798;2023-09-30T04:20:53;8.07;;;4.13;;
66702;SDS011;60933;46.398;-63.798;2023-09-30T04:23:19;10.70;;;5.30;;
66702;SDS011;60933;46.398;-63.798;2023-09-30T04:25:47;10.93;;;4.90;;
66702;SDS011;60933;46.398;-63.798;2023-09-30T04:28:15;11.65;;;5.30;;
66702;SDS011;60933;46.398;-63.798;2023-09-30T04:30:46;12.75;;;5.55;;
66702;SDS011;60933;46.398;-63.798;2023-09-30T04:33:13;10.95;;;5.50;;
66702;SDS011;60933;46.398;-63.798;2023-09-30T04:35:40;8.45;;;4.47;;
66702;SDS011;60933;46.398;-63.798;2023-09-30T04:38:06;9.20;;;4.88;;
66702;SDS011;60933;46.398;-63.798;2023-09-30T04:40:32;11.18;;;5.40;;
66702;SDS011;60933;46.398;-63.798;2023-09-30T04:42:59;13.00;;;5.97;;
66702;SDS011;60933;46.398;-63.798;2023-09-30T04:45:25;10.75;;;5.32;;
66702;SDS011;60933;46.398;-63.798;2023-09-30T04:47:55;9.50;;;4.60;;
66702;SDS011;60933;46.398;-63.798;2023-09-30T04:50:21;8.88;;;4.32;;
66702;SDS011;60933;46.398;-63.798;2023-09-30T04:52:48;8.57;;;4.45;;
66702;SDS011;60933;46.398;-63.798;2023-09-30T04:55:15;8.82;;;4.38;;
66702;SDS011;60933;46.398;-63.798;2023-09-30T04:57:45;8.95;;;4.25;;
66702;SDS011;60933;46.398;-63.798;2023-09-30T05:00:13;8.30;;;4.60;;
66702;SDS011;60933;46.398;-63.798;2023-09-30T05:02:43;8.63;;;4.47;;
66702;SDS011;60933;46.398;-63.798;2023-09-30T05:05:10;8.55;;;4.00;;
66702;SDS011;60933;46.398;-63.798;2023-09-30T05:07:36;12.07;;;7.00;;
66702;SDS011;60933;46.398;-63.798;2023-09-30T05:10:03;13.27;;;6.35;;
66702;SDS011;60933;46.398;-63.798;2023-09-30T05:12:36;14.27;;;6.20;;
66702;SDS011;60933;46.398;-63.798;2023-09-30T05:15:04;12.20;;;5.40;;
66702;SDS011;60933;46.398;-63.798;2023-09-30T05:17:33;10.82;;;5.22;;
66702;SDS011;60933;46.398;-63.798;2023-09-30T05:19:59;11.48;;;5.20;;
66702;SDS011;60933;46.398;-63.798;2023-09-30T05:22:28;11.75;;;5.50;;
66702;SDS011;60933;46.398;-63.798;2023-09-30T05:24:55;11.05;;;5.45;;
66702;SDS011;60933;46.398;-63.798;2023-09-30T05:27:21;10.05;;;5.35;;
66702;SDS011;60933;46.398;-63.798;2023-09-30T05:29:48;11.95;;;5.63;;
66702;SDS011;60933;46.398;-63.798;2023-09-30T05:32:14;11.98;;;6.30;;
66702;SDS011;60933;46.398;-63.798;2023-09-30T05:34:40;10.35;;;5.47;;
66702;SDS011;60933;46.398;-63.798;2023-09-30T05:37:06;11.32;;;5.45;;
66702;SDS011;60933;46.398;-63.798;2023-09-30T05:39:32;10.68;;;5.25;;
66702;SDS011;60933;46.398;-63.798;2023-09-30T05:41:58;8.98;;;4.55;;
66702;SDS011;60933;46.398;-63.798;2023-09-30T05:44:24;8.27;;;4.55;;
66702;SDS011;60933;46.398;-63.798;2023-09-30T05:46:52;8.52;;;4.20;;
66702;SDS011;60933;46.398;-63.798;2023-09-30T05:49:20;9.35;;;4.70;;
66702;SDS011;60933;46.398;-63.798;2023-09-30T05:51:46;7.55;;;3.92;;
66702;SDS011;60933;46.398;-63.798;2023-09-30T05:54:12;8.18;;;3.92;;
66702;SDS011;60933;46.398;-63.798;2023-09-30T05:56:38;7.78;;;3.80;;
66702;SDS011;60933;46.398;-63.798;2023-09-30T05:59:08;5.45;;;3.03;;
66702;SDS011;60933;46.398;-63.798;2023-09-30T06:01:34;6.88;;;3.65;;
66702;SDS011;60933;46.398;-63.798;2023-09-30T06:04:01;6.45;;;3.53;;
66702;SDS011;60933;46.398;-63.798;2023-09-30T06:06:28;7.30;;;3.67;;
66702;SDS011;60933;46.398;-63.798;2023-09-30T06:08:55;7.32;;;3.97;;
66702;SDS011;60933;46.398;-63.798;2023-09-30T06:11:25;6.68;;;3.20;;
66702;SDS011;60933;46.398;-63.798;2023-09-30T06:13:54;5.82;;;2.65;;
66702;SDS011;60933;46.398;-63.798;2023-09-30T06:16:20;4.72;;;2.78;;
66702;SDS011;60933;46.398;-63.798;2023-09-30T06:18:46;6.30;;;3.20;;
66702;SDS011;60933;46.398;-63.798;2023-09-30T06:21:14;8.75;;;3.45;;
66702;SDS011;60933;46.398;-63.798;2023-09-30T06:23:43;7.15;;;3.67;;
66702;SDS011;60933;46.398;-63.798;2023-09-30T06:26:09;6.95;;;3.92;;
66702;SDS011;60933;46.398;-63.798;2023-09-30T06:28:35;4.88;;;2.67;;
66702;SDS011;60933;46.398;-63.798;2023-09-30T06:31:09;6.75;;;3.60;;
66702;SDS011;60933;46.398;-63.798;2023-09-30T06:33:35;6.10;;;3.08;;
66702;SDS011;60933;46.398;-63.798;2023-09-30T06:36:12;8.00;;;3.38;;
66702;SDS011;60933;46.398;-63.798;2023-09-30T06:38:40;9.27;;;4.28;;
66702;SDS011;60933;46.398;-63.798;2023-09-30T06:41:14;8.63;;;4.60;;
66702;SDS011;60933;46.398;-63.798;2023-09-30T06:43:42;10.68;;;5.10;;
66702;SDS011;60933;46.398;-63.798;2023-09-30T06:46:08;8.95;;;4.55;;
66702;SDS011;60933;46.398;-63.798;2023-09-30T06:48:35;9.30;;;4.47;;
66702;SDS011;60933;46.398;-63.798;2023-09-30T06:51:01;9.77;;;4.32;;
66702;SDS011;60933;46.398;-63.798;2023-09-30T06:53:28;10.00;;;4.35;;
66702;SDS011;60933;46.398;-63.798;2023-09-30T06:55:54;10.20;;;5.25;;
66702;SDS011;60933;46.398;-63.798;2023-09-30T06:58:20;13.27;;;6.68;;
66702;SDS011;60933;46.398;-63.798;2023-09-30T07:00:47;13.20;;;6.25;;
66702;SDS011;60933;46.398;-63.798;2023-09-30T07:03:15;13.95;;;6.53;;
66702;SDS011;60933;46.398;-63.798;2023-09-30T07:05:42;11.43;;;6.07;;
66702;SDS011;60933;46.398;-63.798;2023-09-30T07:08:08;11.05;;;6.15;;
66702;SDS011;60933;46.398;-63.798;2023-09-30T07:10:35;13.90;;;6.22;;
66702;SDS011;60933;46.398;-63.798;2023-09-30T07:13:02;14.45;;;6.00;;
66702;SDS011;60933;46.398;-63.798;2023-09-30T07:15:29;15.90;;;7.25;;
66702;SDS011;60933;46.398;-63.798;2023-09-30T07:17:55;12.52;;;6.35;;
66702;SDS011;60933;46.398;-63.798;2023-09-30T07:20:21;14.52;;;6.50;;
66702;SDS011;60933;46.398;-63.798;2023-09-30T07:22:48;14.32;;;5.72;;
66702;SDS011;60933;46.398;-63.798;2023-09-30T07:25:14;12.82;;;6.20;;
66702;SDS011;60933;46.398;-63.798;2023-09-30T07:27:42;14.48;;;6.85;;
66702;SDS011;60933;46.398;-63.798;2023-09-30T07:30:10;11.95;;;6.35;;
66702;SDS011;60933;46.398;-63.798;2023-09-30T07:32:37;13.68;;;6.88;;
66702;SDS011;60933;46.398;-63.798;2023-09-30T07:35:04;14.18;;;6.30;;
66702;SDS011;60933;46.398;-63.798;2023-09-30T07:37:30;13.18;;;6.07;;
66702;SDS011;60933;46.398;-63.798;2023-09-30T07:39:57;11.40;;;5.47;;
66702;SDS011;60933;46.398;-63.798;2023-09-30T07:42:23;13.20;;;6.57;;
66702;SDS011;60933;46.398;-63.798;2023-09-30T07:44:49;14.43;;;6.28;;
66702;SDS011;60933;46.398;-63.798;2023-09-30T07:47:15;14.10;;;6.95;;
66702;SDS011;60933;46.398;-63.798;2023-09-30T07:49:41;16.73;;;8.68;;
66702;SDS011;60933;46.398;-63.798;2023-09-30T07:52:07;37.50;;;17.20;;
66702;SDS011;60933;46.398;-63.798;2023-09-30T07:54:33;24.35;;;10.75;;
66702;SDS011;60933;46.398;-63.798;2023-09-30T07:56:59;21.45;;;9.70;;
66702;SDS011;60933;46.398;-63.798;2023-09-30T07:59:26;18.13;;;8.35;;
66702;SDS011;60933;46.398;-63.798;2023-09-30T08:01:53;15.82;;;8.45;;
66702;SDS011;60933;46.398;-63.798;2023-09-30T08:04:19;18.58;;;9.40;;
66702;SDS011;60933;46.398;-63.798;2023-09-30T08:06:45;29.45;;;15.63;;
66702;SDS011;60933;46.398;-63.798;2023-09-30T08:09:14;24.80;;;13.00;;
66702;SDS011;60933;46.398;-63.798;2023-09-30T08:11:40;22.23;;;11.75;;
66702;SDS011;60933;46.398;-63.798;2023-09-30T08:14:06;17.30;;;7.85;;
66702;SDS011;60933;46.398;-63.798;2023-09-30T08:16:34;14.02;;;6.40;;
66702;SDS011;60933;46.398;-63.798;2023-09-30T08:19:04;13.38;;;7.03;;
66702;SDS011;60933;46.398;-63.798;2023-09-30T08:21:30;11.55;;;5.80;;
66702;SDS011;60933;46.398;-63.798;2023-09-30T08:23:57;11.82;;;6.13;;
66702;SDS011;60933;46.398;-63.798;2023-09-30T08:26:23;11.90;;;5.65;;
66702;SDS011;60933;46.398;-63.798;2023-09-30T08:28:49;12.90;;;6.38;;
66702;SDS011;60933;46.398;-63.798;2023-09-30T08:31:15;14.02;;;6.32;;
66702;SDS011;60933;46.398;-63.798;2023-09-30T08:33:41;14.35;;;6.78;;
66702;SDS011;60933;46.398;-63.798;2023-09-30T08:36:10;15.45;;;6.78;;
66702;SDS011;60933;46.398;-63.798;2023-09-30T08:38:37;12.02;;;5.95;;
66702;SDS011;60933;46.398;-63.798;2023-09-30T08:41:04;13.60;;;6.18;;
66702;SDS011;60933;46.398;-63.798;2023-09-30T08:43:30;11.23;;;5.78;;
66702;SDS011;60933;46.398;-63.798;2023-09-30T08:46:01;13.23;;;6.25;;
66702;SDS011;60933;46.398;-63.798;2023-09-30T08:48:30;12.82;;;6.00;;
66702;SDS011;60933;46.398;-63.798;2023-09-30T08:50:58;10.98;;;5.40;;
66702;SDS011;60933;46.398;-63.798;2023-09-30T08:53:26;11.50;;;6.35;;
66702;SDS011;60933;46.398;-63.798;2023-09-30T08:55:52;12.18;;;5.97;;
66702;SDS011;60933;46.398;-63.798;2023-09-30T08:58:20;13.30;;;6.57;;
66702;SDS011;60933;46.398;-63.798;2023-09-30T09:00:50;13.20;;;6.65;;
66702;SDS011;60933;46.398;-63.798;2023-09-30T09:03:18;14.45;;;7.05;;
66702;SDS011;60933;46.398;-63.798;2023-09-30T09:05:45;11.15;;;6.00;;
66702;SDS011;60933;46.398;-63.798;2023-09-30T09:08:12;14.15;;;6.85;;
66702;SDS011;60933;46.398;-63.798;2023-09-30T09:11:12;12.05;;;5.85;;
66702;SDS011;60933;46.398;-63.798;2023-09-30T09:13:44;14.05;;;6.55;;
66702;SDS011;60933;46.398;-63.798;2023-09-30T09:16:16;12.20;;;6.40;;
66702;SDS011;60933;46.398;-63.798;2023-09-30T09:18:46;14.73;;;6.78;;
66702;SDS011;60933;46.398;-63.798;2023-09-30T09:21:13;11.68;;;6.03;;
66702;SDS011;60933;46.398;-63.798;2023-09-30T09:23:45;12.38;;;5.82;;
66702;SDS011;60933;46.398;-63.798;2023-09-30T09:28:49;13.85;;;6.82;;
66702;SDS011;60933;46.398;-63.798;2023-09-30T09:31:19;12.38;;;6.28;;
66702;SDS011;60933;46.398;-63.798;2023-09-30T09:33:47;12.82;;;5.90;;
66702;SDS011;60933;46.398;-63.798;2023-09-30T09:36:14;12.50;;;5.93;;
66702;SDS011;60933;46.398;-63.798;2023-09-30T09:38:48;12.65;;;6.25;;
66702;SDS011;60933;46.398;-63.798;2023-09-30T09:41:19;12.30;;;5.80;;
66702;SDS011;60933;46.398;-63.798;2023-09-30T09:43:49;10.35;;;4.93;;
66702;SDS011;60933;46.398;-63.798;2023-09-30T09:46:16;12.45;;;5.57;;
66702;SDS011;60933;46.398;-63.798;2023-09-30T09:48:44;11.07;;;6.05;;
66702;SDS011;60933;46.398;-63.798;2023-09-30T09:51:13;13.07;;;5.82;;
66702;SDS011;60933;46.398;-63.798;2023-09-30T09:53:40;12.95;;;6.13;;
66702;SDS011;60933;46.398;-63.798;2023-09-30T09:56:10;12.90;;;5.85;;
66702;SDS011;60933;46.398;-63.798;2023-09-30T09:58:38;10.52;;;6.05;;
66702;SDS011;60933;46.398;-63.798;2023-09-30T10:01:07;12.75;;;6.10;;
66702;SDS011;60933;46.398;-63.798;2023-09-30T10:03:38;12.93;;;6.45;;
66702;SDS011;60933;46.398;-63.798;2023-09-30T10:06:04;14.38;;;7.20;;
66702;SDS011;60933;46.398;-63.798;2023-09-30T10:08:33;13.50;;;6.35;;
66702;SDS011;60933;46.398;-63.798;2023-09-30T10:11:05;12.30;;;6.38;;
66702;SDS011;60933;46.398;-63.798;2023-09-30T10:13:50;14.55;;;6.88;;
66702;SDS011;60933;46.398;-63.798;2023-09-30T10:19:07;12.90;;;6.13;;
66702;SDS011;60933;46.398;-63.798;2023-09-30T10:24:50;13.75;;;5.65;;
66702;SDS011;60933;46.398;-63.798;2023-09-30T10:37:46;13.98;;;5.53;;
66702;SDS011;60933;46.398;-63.798;2023-09-30T10:40:29;12.52;;;5.70;;
66702;SDS011;60933;46.398;-63.798;2023-09-30T10:42:59;11.30;;;5.65;;
66702;SDS011;60933;46.398;-63.798;2023-09-30T10:50:51;13.63;;;6.18;;
66702;SDS011;60933;46.398;-63.798;2023-09-30T10:53:19;12.27;;;5.93;;
66702;SDS011;60933;46.398;-63.798;2023-09-30T10:55:46;13.48;;;6.47;;
66702;SDS011;60933;46.398;-63.798;2023-09-30T10:58:12;11.45;;;5.40;;
66702;SDS011;60933;46.398;-63.798;2023-09-30T11:00:38;12.55;;;7.15;;
66702;SDS011;60933;46.398;-63.798;2023-09-30T11:03:10;12.68;;;6.57;;
66702;SDS011;60933;46.398;-63.798;2023-09-30T11:05:37;11.85;;;6.18;;
66702;SDS011;60933;46.398;-63.798;2023-09-30T11:08:03;13.85;;;6.53;;
66702;SDS011;60933;46.398;-63.798;2023-09-30T11:10:30;13.25;;;6.07;;
66702;SDS011;60933;46.398;-63.798;2023-09-30T11:12:57;14.23;;;6.60;;
66702;SDS011;60933;46.398;-63.798;2023-09-30T11:15:24;16.08;;;7.40;;
66702;SDS011;60933;46.398;-63.798;2023-09-30T11:17:53;11.07;;;5.53;;
66702;SDS011;60933;46.398;-63.798;2023-09-30T11:20:37;13.48;;;6.97;;
66702;SDS011;60933;46.398;-63.798;2023-09-30T11:23:04;12.90;;;6.50;;
66702;SDS011;60933;46.398;-63.798;2023-09-30T11:25:34;11.73;;;6.03;;
66702;SDS011;60933;46.398;-63.798;2023-09-30T11:28:15;11.15;;;5.95;;
66702;SDS011;60933;46.398;-63.798;2023-09-30T11:33:24;13.20;;;5.95;;
66702;SDS011;60933;46.398;-63.798;2023-09-30T11:36:04;12.98;;;6.40;;
66702;SDS011;60933;46.398;-63.798;2023-09-30T11:38:32;12.38;;;6.78;;
66702;SDS011;60933;46.398;-63.798;2023-09-30T11:41:03;13.13;;;6.85;;
66702;SDS011;60933;46.398;-63.798;2023-09-30T11:43:34;11.93;;;6.30;;
66702;SDS011;60933;46.398;-63.798;2023-09-30T11:46:04;14.45;;;7.43;;
66702;SDS011;60933;46.398;-63.798;2023-09-30T11:48:31;12.52;;;6.22;;
66702;SDS011;60933;46.398;-63.798;2023-09-30T11:51:00;13.10;;;6.38;;
66702;SDS011;60933;46.398;-63.798;2023-09-30T11:53:28;16.25;;;6.80;;
66702;SDS011;60933;46.398;-63.798;2023-09-30T11:55:59;12.05;;;6.15;;
66702;SDS011;60933;46.398;-63.798;2023-09-30T12:00:57;12.85;;;6.05;;
66702;SDS011;60933;46.398;-63.798;2023-09-30T12:03:25;12.02;;;6.97;;
66702;SDS011;60933;46.398;-63.798;2023-09-30T12:05:53;12.77;;;6.57;;
66702;SDS011;60933;46.398;-63.798;2023-09-30T12:08:23;13.23;;;6.43;;
66702;SDS011;60933;46.398;-63.798;2023-09-30T12:10:49;15.30;;;7.63;;
66702;SDS011;60933;46.398;-63.798;2023-09-30T12:13:17;13.15;;;6.28;;
66702;SDS011;60933;46.398;-63.798;2023-09-30T12:15:43;19.90;;;8.60;;
66702;SDS011;60933;46.398;-63.798;2023-09-30T12:18:11;14.48;;;6.78;;
66702;SDS011;60933;46.398;-63.798;2023-09-30T12:20:39;14.15;;;6.80;;
66702;SDS011;60933;46.398;-63.798;2023-09-30T12:23:06;15.95;;;7.85;;
66702;SDS011;60933;46.398;-63.798;2023-09-30T12:25:32;12.45;;;6.63;;
66702;SDS011;60933;46.398;-63.798;2023-09-30T12:27:59;13.57;;;6.93;;
66702;SDS011;60933;46.398;-63.798;2023-09-30T12:30:25;12.88;;;6.30;;
66702;SDS011;60933;46.398;-63.798;2023-09-30T12:32:52;11.00;;;5.72;;
66702;SDS011;60933;46.398;-63.798;2023-09-30T12:35:20;12.10;;;6.55;;
66702;SDS011;60933;46.398;-63.798;2023-09-30T12:37:46;13.90;;;7.13;;
66702;SDS011;60933;46.398;-63.798;2023-09-30T12:40:13;14.63;;;7.35;;
66702;SDS011;60933;46.398;-63.798;2023-09-30T12:42:42;13.07;;;6.93;;
66702;SDS011;60933;46.398;-63.798;2023-09-30T12:45:10;15.88;;;6.90;;
66702;SDS011;60933;46.398;-63.798;2023-09-30T12:47:38;12.30;;;6.15;;
66702;SDS011;60933;46.398;-63.798;2023-09-30T12:50:04;15.95;;;6.85;;
66702;SDS011;60933;46.398;-63.798;2023-09-30T12:52:34;14.57;;;6.97;;
66702;SDS011;60933;46.398;-63.798;2023-09-30T12:55:01;14.45;;;6.90;;
66702;SDS011;60933;46.398;-63.798;2023-09-30T12:57:27;14.77;;;7.28;;
66702;SDS011;60933;46.398;-63.798;2023-09-30T12:59:53;13.25;;;6.93;;
66702;SDS011;60933;46.398;-63.798;2023-09-30T13:02:20;14.00;;;7.03;;
66702;SDS011;60933;46.398;-63.798;2023-09-30T13:04:46;14.93;;;7.85;;
66702;SDS011;60933;46.398;-63.798;2023-09-30T13:07:12;13.38;;;6.97;;
66702;SDS011;60933;46.398;-63.798;2023-09-30T13:09:38;15.07;;;7.20;;
66702;SDS011;60933;46.398;-63.798;2023-09-30T13:12:05;14.75;;;7.10;;
66702;SDS011;60933;46.398;-63.798;2023-09-30T13:14:31;12.82;;;6.93;;
66702;SDS011;60933;46.398;-63.798;2023-09-30T13:16:57;14.45;;;7.13;;
66702;SDS011;60933;46.398;-63.798;2023-09-30T13:19:24;15.95;;;7.88;;
66702;SDS011;60933;46.398;-63.798;2023-09-30T13:21:50;18.50;;;8.25;;
66702;SDS011;60933;46.398;-63.798;2023-09-30T13:24:20;14.23;;;7.18;;
66702;SDS011;60933;46.398;-63.798;2023-09-30T13:26:46;15.20;;;7.75;;
66702;SDS011;60933;46.398;-63.798;2023-09-30T13:29:13;15.00;;;8.02;;
66702;SDS011;60933;46.398;-63.798;2023-09-30T13:31:42;13.88;;;6.93;;
66702;SDS011;60933;46.398;-63.798;2023-09-30T13:34:08;15.40;;;8.25;;
66702;SDS011;60933;46.398;-63.798;2023-09-30T13:36:35;16.38;;;7.70;;
66702;SDS011;60933;46.398;-63.798;2023-09-30T13:39:01;16.20;;;8.07;;
66702;SDS011;60933;46.398;-63.798;2023-09-30T13:41:33;15.65;;;7.57;;
66702;SDS011;60933;46.398;-63.798;2023-09-30T13:44:01;19.33;;;8.85;;
66702;SDS011;60933;46.398;-63.798;2023-09-30T13:46:27;12.98;;;7.68;;
66702;SDS011;60933;46.398;-63.798;2023-09-30T13:48:54;16.67;;;8.70;;
66702;SDS011;60933;46.398;-63.798;2023-09-30T13:51:20;15.57;;;8.00;;
66702;SDS011;60933;46.398;-63.798;2023-09-30T13:53:48;15.45;;;8.07;;
66702;SDS011;60933;46.398;-63.798;2023-09-30T13:56:14;16.40;;;7.55;;
66702;SDS011;60933;46.398;-63.798;2023-09-30T13:58:40;16.50;;;8.38;;
66702;SDS011;60933;46.398;-63.798;2023-09-30T14:01:09;17.63;;;8.52;;
66702;SDS011;60933;46.398;-63.798;2023-09-30T14:03:36;15.68;;;8.13;;
66702;SDS011;60933;46.398;-63.798;2023-09-30T14:06:02;12.57;;;7.60;;
66702;SDS011;60933;46.398;-63.798;2023-09-30T14:08:34;16.27;;;8.07;;
66702;SDS011;60933;46.398;-63.798;2023-09-30T14:11:00;14.95;;;7.47;;
66702;SDS011;60933;46.398;-63.798;2023-09-30T14:13:26;14.93;;;8.10;;
66702;SDS011;60933;46.398;-63.798;2023-09-30T14:15:52;12.98;;;6.85;;
66702;SDS011;60933;46.398;-63.798;2023-09-30T14:18:18;15.00;;;7.97;;
66702;SDS011;60933;46.398;-63.798;2023-09-30T14:20:45;16.80;;;8.75;;
66702;SDS011;60933;46.398;-63.798;2023-09-30T14:23:11;15.68;;;8.02;;
66702;SDS011;60933;46.398;-63.798;2023-09-30T14:25:37;13.98;;;7.10;;
66702;SDS011;60933;46.398;-63.798;2023-09-30T14:28:05;14.68;;;8.15;;
66702;SDS011;60933;46.398;-63.798;2023-09-30T14:30:31;14.05;;;7.75;;
66702;SDS011;60933;46.398;-63.798;2023-09-30T14:32:57;14.18;;;7.25;;
66702;SDS011;60933;46.398;-63.798;2023-09-30T14:35:23;15.57;;;7.70;;
66702;SDS011;60933;46.398;-63.798;2023-09-30T14:37:49;16.35;;;8.68;;
66702;SDS011;60933;46.398;-63.798;2023-09-30T14:40:19;12.60;;;7.22;;
66702;SDS011;60933;46.398;-63.798;2023-09-30T14:42:45;13.90;;;7.70;;
66702;SDS011;60933;46.398;-63.798;2023-09-30T14:45:11;13.73;;;8.13;;